createdAt,value
2018-04-28T00:01:32.069Z,10.06
2018-04-28T00:04:02.763Z,10.48
2018-04-28T00:06:33.472Z,10.71
2018-04-28T00:09:04.383Z,10.07
2018-04-28T00:11:35.234Z,10.55
2018-04-28T00:14:06.021Z,10.41
2018-04-28T00:16:44.152Z,10.55
2018-04-28T00:19:14.889Z,10.43
2018-04-28T00:21:45.886Z,10.07
2018-04-28T00:24:16.671Z,10.48
2018-04-28T00:26:47.672Z,10.69
2018-04-28T00:29:18.523Z,10.63
2018-04-28T00:31:49.391Z,10.58
2018-04-28T00:34:20.191Z,10.59
2018-04-28T00:36:53.272Z,10.37
2018-04-28T00:39:23.997Z,10.52
2018-04-28T00:41:54.712Z,10.56
2018-04-28T00:44:25.639Z,10.49
2018-04-28T00:46:56.567Z,10.44
2018-04-28T00:49:27.453Z,10.46
2018-04-28T00:51:58.629Z,10.40
2018-04-28T00:54:29.678Z,10.31
2018-04-28T00:57:00.529Z,10.37
2018-04-28T00:59:31.312Z,10.55
2018-04-28T01:02:02.141Z,10.48
2018-04-28T01:04:33.227Z,10.30
2018-04-28T01:07:03.935Z,10.37
2018-04-28T01:09:34.784Z,10.57
2018-04-28T01:12:05.898Z,10.55
2018-04-28T01:14:38.051Z,10.52
2018-04-28T01:17:09.075Z,10.55
2018-04-28T01:19:39.800Z,10.58
2018-04-28T01:22:10.652Z,10.56
2018-04-28T01:24:41.289Z,10.40
2018-04-28T01:27:12.226Z,10.50
2018-04-28T01:29:50.740Z,10.47
2018-04-28T01:32:21.437Z,10.50
2018-04-28T01:34:52.327Z,10.50
2018-04-28T01:37:23.394Z,10.61
2018-04-28T01:39:54.328Z,10.44
2018-04-28T01:42:25.117Z,10.55
2018-04-28T01:44:55.812Z,10.55
2018-04-28T01:47:26.578Z,10.46
2018-04-28T01:49:57.787Z,10.35
2018-04-28T01:52:28.647Z,10.10
2018-04-28T01:55:01.151Z,10.07
2018-04-28T01:57:32.004Z,10.17
2018-04-28T02:00:03.328Z,9.84
2018-04-28T02:02:34.099Z,10.26
2018-04-28T02:05:04.959Z,10.39
2018-04-28T02:07:35.704Z,10.34
2018-04-28T02:10:06.653Z,10.21
2018-04-28T02:12:37.592Z,10.28
2018-04-28T02:15:08.218Z,10.18
2018-04-28T02:17:38.997Z,10.23
2018-04-28T02:20:09.764Z,10.32
2018-04-28T02:22:40.811Z,10.22
2018-04-28T02:25:11.563Z,10.16
2018-04-28T02:27:42.322Z,10.33
2018-04-28T02:30:13.041Z,10.29
2018-04-28T02:32:44.045Z,10.51
2018-04-28T02:35:15.241Z,10.54
2018-04-28T02:37:46.057Z,10.51
2018-04-28T02:40:16.933Z,10.49
2018-04-28T02:42:47.553Z,10.49
2018-04-28T02:45:18.421Z,10.52
2018-04-28T02:47:49.134Z,10.60
2018-04-28T02:50:19.963Z,10.52
2018-04-28T02:52:50.780Z,10.51
2018-04-28T02:55:21.602Z,10.67
2018-04-28T02:57:52.812Z,10.79
2018-04-28T03:00:23.907Z,10.78
2018-04-28T03:02:55.090Z,10.49
2018-04-28T03:05:25.952Z,10.59
2018-04-28T03:07:58.519Z,10.72
2018-04-28T03:10:28.943Z,10.72
2018-04-28T03:12:59.458Z,10.88
2018-04-28T03:15:29.824Z,10.87
2018-04-28T03:18:00.373Z,10.83
2018-04-28T03:20:31.268Z,10.79
2018-04-28T03:23:01.825Z,10.92
2018-04-28T03:25:32.316Z,10.63
2018-04-28T03:28:02.641Z,10.68
2018-04-28T03:30:33.178Z,10.75
2018-04-28T03:33:03.537Z,10.66
2018-04-28T03:35:34.013Z,10.69
2018-04-28T03:38:04.748Z,10.57
2018-04-28T03:40:35.293Z,10.78
2018-04-28T03:43:05.700Z,10.43
2018-04-28T03:45:36.068Z,10.36
2018-04-28T03:48:08.778Z,10.40
2018-04-28T03:50:39.295Z,10.52
2018-04-28T03:53:09.636Z,10.21
2018-04-28T03:55:40.217Z,10.31
2018-04-28T03:59:19.815Z,10.45
2018-04-28T04:02:59.639Z,10.29
2018-04-28T04:05:30.073Z,10.52
2018-04-28T04:08:00.656Z,10.47
2018-04-28T04:10:31.156Z,10.51
2018-04-28T04:13:01.728Z,10.31
2018-04-28T04:15:32.541Z,10.25
2018-04-28T04:18:11.521Z,10.44
2018-04-28T04:20:50.600Z,10.62
2018-04-28T04:23:21.168Z,10.64
2018-04-28T04:25:51.798Z,10.41
2018-04-28T04:28:22.722Z,10.48
2018-04-28T04:30:53.520Z,10.15
2018-04-28T04:33:28.184Z,10.43
2018-04-28T04:35:59.204Z,10.40
2018-04-28T04:38:29.669Z,10.47
2018-04-28T04:41:00.113Z,10.47
2018-04-28T04:43:30.877Z,10.48
2018-04-28T04:46:02.000Z,10.50
2018-04-28T04:48:36.291Z,10.24
2018-04-28T04:51:07.176Z,10.49
2018-04-28T04:53:38.624Z,10.55
2018-04-28T04:56:13.262Z,10.59
2018-04-28T04:58:43.686Z,10.37
2018-04-28T05:01:20.715Z,10.53
2018-04-28T05:03:52.123Z,10.62
2018-04-28T05:06:22.645Z,10.72
2018-04-28T05:08:55.478Z,10.73
2018-04-28T05:11:26.090Z,10.68
2018-04-28T05:13:56.573Z,10.73
2018-04-28T05:16:26.940Z,10.69
2018-04-28T05:18:57.419Z,10.38
2018-04-28T05:21:28.164Z,10.53
2018-04-28T05:24:02.004Z,10.65
2018-04-28T05:26:32.809Z,10.51
2018-04-28T05:29:06.492Z,10.77
2018-04-28T05:31:39.012Z,10.32
2018-04-28T05:34:10.121Z,10.25
2018-04-28T05:36:40.600Z,10.47
2018-04-28T05:39:11.044Z,10.84
2018-04-28T05:41:41.816Z,11.02
2018-04-28T05:44:12.596Z,10.99
2018-04-28T05:46:43.128Z,10.99
2018-04-28T05:49:13.803Z,11.13
2018-04-28T05:51:44.407Z,11.28
2018-04-28T05:54:15.032Z,11.45
2018-04-28T05:56:45.611Z,11.63
2018-04-28T05:59:16.212Z,11.72
2018-04-28T06:01:47.356Z,11.79
2018-04-28T06:04:26.838Z,11.92
2018-04-28T06:07:02.136Z,12.00
2018-04-28T06:09:32.609Z,12.12
2018-04-28T06:12:03.448Z,12.35
2018-04-28T06:14:33.967Z,12.50
2018-04-28T06:17:04.756Z,12.61
2018-04-28T06:19:35.531Z,12.66
2018-04-28T06:22:06.063Z,12.69
2018-04-28T06:24:36.580Z,12.91
2018-04-28T06:27:06.931Z,13.11
2018-04-28T06:29:37.292Z,13.35
2018-04-28T06:32:07.886Z,13.49
2018-04-28T06:34:38.459Z,13.67
2018-04-28T06:37:08.925Z,13.66
2018-04-28T06:39:39.304Z,13.81
2018-04-28T06:42:09.680Z,13.92
2018-04-28T06:44:39.911Z,14.27
2018-04-28T06:47:10.383Z,14.23
2018-04-28T06:49:40.777Z,14.50
2018-04-28T06:52:11.111Z,14.04
2018-04-28T06:54:41.563Z,14.07
2018-04-28T06:57:12.258Z,13.88
2018-04-28T06:59:42.883Z,14.22
2018-04-28T07:02:13.120Z,14.22
2018-04-28T07:04:43.713Z,14.25
2018-04-28T07:07:14.195Z,14.07
2018-04-28T07:09:44.647Z,14.06
2018-04-28T07:12:15.012Z,14.22
2018-04-28T07:14:45.387Z,14.16
2018-04-28T07:17:15.789Z,14.42
2018-04-28T07:19:46.211Z,14.30
2018-04-28T07:22:16.829Z,14.34
2018-04-28T07:24:47.244Z,14.40
2018-04-28T07:27:17.651Z,14.30
2018-04-28T07:29:48.132Z,14.13
2018-04-28T07:32:18.561Z,14.30
2018-04-28T07:34:48.909Z,14.37
2018-04-28T07:37:19.103Z,14.44
2018-04-28T07:39:49.635Z,14.39
2018-04-28T07:42:20.034Z,14.38
2018-04-28T07:44:50.510Z,14.21
2018-04-28T07:47:21.008Z,14.47
2018-04-28T07:49:51.513Z,14.58
2018-04-28T07:52:22.039Z,14.53
2018-04-28T07:54:52.570Z,14.81
2018-04-28T07:57:22.905Z,14.62
2018-04-28T07:59:53.396Z,14.70
2018-04-28T08:02:23.664Z,14.83
2018-04-28T08:04:54.140Z,14.94
2018-04-28T08:07:24.481Z,14.91
2018-04-28T08:09:54.987Z,15.51
2018-04-28T08:12:25.205Z,15.06
2018-04-28T08:14:55.631Z,15.16
2018-04-28T08:17:26.018Z,15.27
2018-04-28T08:19:56.316Z,15.25
2018-04-28T08:22:26.632Z,15.16
2018-04-28T08:25:00.594Z,15.32
2018-04-28T08:27:30.886Z,15.25
2018-04-28T08:30:01.358Z,15.39
2018-04-28T08:32:31.938Z,15.32
2018-04-28T08:35:02.344Z,15.20
2018-04-28T08:37:32.691Z,15.45
2018-04-28T08:40:03.133Z,15.94
2018-04-28T08:42:33.830Z,16.04
2018-04-28T08:45:04.302Z,15.95
2018-04-28T08:47:34.695Z,15.48
2018-04-28T08:50:05.136Z,15.38
2018-04-28T08:52:35.554Z,15.26
2018-04-28T08:55:05.914Z,15.49
2018-04-28T08:57:36.171Z,15.62
2018-04-28T09:00:17.297Z,16.07
2018-04-28T09:02:47.648Z,16.33
2018-04-28T09:05:18.066Z,16.39
2018-04-28T09:07:48.480Z,15.90
2018-04-28T09:10:19.085Z,16.01
2018-04-28T09:12:49.693Z,15.70
2018-04-28T09:15:20.599Z,15.74
2018-04-28T09:17:51.268Z,15.73
2018-04-28T09:20:21.990Z,15.85
2018-04-28T09:22:52.771Z,15.82
2018-04-28T09:25:23.889Z,16.03
2018-04-28T09:27:54.559Z,16.56
2018-04-28T09:30:25.633Z,16.05
2018-04-28T09:32:56.392Z,15.86
2018-04-28T09:35:27.055Z,16.21
2018-04-28T09:37:57.776Z,16.16
2018-04-28T09:40:28.413Z,16.00
2018-04-28T09:42:59.137Z,15.95
2018-04-28T09:45:29.840Z,16.26
2018-04-28T09:48:00.404Z,16.32
2018-04-28T09:50:31.052Z,16.41
2018-04-28T09:53:01.608Z,16.24
2018-04-28T09:55:32.432Z,16.02
2018-04-28T09:58:06.507Z,15.93
2018-04-28T10:00:37.466Z,16.30
2018-04-28T10:03:12.317Z,16.71
2018-04-28T10:05:42.983Z,16.66
2018-04-28T10:08:13.627Z,16.85
2018-04-28T10:10:44.195Z,16.47
2018-04-28T10:13:15.018Z,16.15
2018-04-28T10:15:45.572Z,16.31
2018-04-28T10:18:16.301Z,16.55
2018-04-28T10:20:46.886Z,17.11
2018-04-28T10:23:17.527Z,17.45
2018-04-28T10:25:48.422Z,17.66
2018-04-28T10:28:19.040Z,17.43
2018-04-28T10:30:49.770Z,17.52
2018-04-28T10:33:20.571Z,17.24
2018-04-28T10:35:51.156Z,17.04
2018-04-28T10:38:22.472Z,17.08
2018-04-28T10:40:53.012Z,17.36
2018-04-28T10:43:23.952Z,17.23
2018-04-28T10:45:54.591Z,17.61
2018-04-28T10:48:25.309Z,17.47
2018-04-28T10:50:55.975Z,17.02
2018-04-28T10:53:26.723Z,16.84
2018-04-28T10:55:57.299Z,16.70
2018-04-28T10:58:27.992Z,16.87
2018-04-28T11:00:58.700Z,16.77
2018-04-28T11:03:29.335Z,16.76
2018-04-28T11:05:59.963Z,17.04
2018-04-28T11:08:30.727Z,17.20
2018-04-28T11:11:01.402Z,17.36
2018-04-28T11:13:32.496Z,17.10
2018-04-28T11:16:03.417Z,16.89
2018-04-28T11:18:34.200Z,17.12
2018-04-28T11:21:04.949Z,17.15
2018-04-28T11:23:35.925Z,17.42
2018-04-28T11:26:06.487Z,17.17
2018-04-28T11:28:37.282Z,17.28
2018-04-28T11:31:08.378Z,17.71
2018-04-28T11:33:39.008Z,17.82
2018-04-28T11:36:09.983Z,17.61
2018-04-28T11:38:40.649Z,17.74
2018-04-28T11:41:12.249Z,18.16
2018-04-28T11:43:42.855Z,17.92
2018-04-28T11:46:13.570Z,18.11
2018-04-28T11:48:44.312Z,17.87
2018-04-28T11:51:15.346Z,17.97
2018-04-28T11:53:46.147Z,17.61
2018-04-28T11:56:16.749Z,17.60
2018-04-28T11:58:48.021Z,18.05
2018-04-28T12:01:18.636Z,18.38
2018-04-28T12:03:49.354Z,18.28
2018-04-28T12:06:20.003Z,18.25
2018-04-28T12:08:50.696Z,18.11
2018-04-28T12:11:21.401Z,18.22
2018-04-28T12:13:52.009Z,18.18
2018-04-28T12:16:22.724Z,18.20
2018-04-28T12:18:53.363Z,18.26
2018-04-28T12:21:23.980Z,18.13
2018-04-28T12:23:54.580Z,18.12
2018-04-28T12:26:25.239Z,18.10
2018-04-28T12:28:55.816Z,18.04
2018-04-28T12:31:26.656Z,17.85
2018-04-28T12:33:57.267Z,17.86
2018-04-28T12:36:28.084Z,17.78
2018-04-28T12:38:58.819Z,18.13
2018-04-28T12:41:29.552Z,18.24
2018-04-28T12:44:00.223Z,18.42
2018-04-28T12:46:31.008Z,17.95
2018-04-28T12:49:01.891Z,18.13
2018-04-28T12:51:32.716Z,18.46
2018-04-28T12:54:04.266Z,18.53
2018-04-28T12:56:34.860Z,18.44
2018-04-28T12:59:05.555Z,18.29
2018-04-28T13:01:36.292Z,18.09
2018-04-28T13:04:06.855Z,18.27
2018-04-28T13:06:37.585Z,18.14
2018-04-28T13:09:08.335Z,18.28
2018-04-28T13:11:38.884Z,18.31
2018-04-28T13:14:09.602Z,18.06
2018-04-28T13:20:15.645Z,17.83
2018-04-28T13:22:46.480Z,18.15
2018-04-28T13:25:16.967Z,17.82
2018-04-28T13:27:47.624Z,18.19
2018-04-28T13:30:18.458Z,17.99
2018-04-28T13:32:49.002Z,18.06
2018-04-28T13:35:19.897Z,18.09
2018-04-28T13:37:51.045Z,17.97
2018-04-28T13:40:22.483Z,17.66
2018-04-28T13:42:54.112Z,17.61
2018-04-28T13:45:25.911Z,17.98
2018-04-28T13:47:56.714Z,17.86
2018-04-28T13:50:27.254Z,17.61
2018-04-28T13:52:58.223Z,17.54
2018-04-28T13:55:28.842Z,17.94
2018-04-28T13:57:59.525Z,18.04
2018-04-28T14:00:30.242Z,18.06
2018-04-28T14:03:00.931Z,18.20
2018-04-28T14:05:31.682Z,18.11
2018-04-28T14:08:02.383Z,18.31
2018-04-28T14:10:33.031Z,18.31
2018-04-28T14:13:03.584Z,18.34
2018-04-28T14:15:34.423Z,18.38
2018-04-28T14:18:05.102Z,18.40
2018-04-28T14:20:35.944Z,18.55
2018-04-28T14:23:06.579Z,18.54
2018-04-28T14:25:37.227Z,18.18
2018-04-28T14:28:08.027Z,18.18
2018-04-28T14:30:38.743Z,18.23
2018-04-28T14:33:09.548Z,18.29
2018-04-28T14:35:40.108Z,18.09
2018-04-28T14:38:10.796Z,18.14
2018-04-28T14:40:41.572Z,18.10
2018-04-28T14:43:12.504Z,18.29
2018-04-28T14:45:43.197Z,18.26
2018-04-28T14:48:13.854Z,18.62
2018-04-28T14:50:44.442Z,18.60
2018-04-28T14:53:15.027Z,18.55
2018-04-28T14:55:45.504Z,18.48
2018-04-28T14:58:16.255Z,18.88
2018-04-28T15:00:46.915Z,19.30
2018-04-28T15:03:17.621Z,18.56
2018-04-28T15:05:48.218Z,18.76
2018-04-28T15:08:18.768Z,18.84
2018-04-28T15:10:49.364Z,19.04
2018-04-28T15:13:19.892Z,18.85
2018-04-28T15:15:50.769Z,18.72
2018-04-28T15:18:21.491Z,18.81
2018-04-28T15:20:52.091Z,18.88
2018-04-28T15:23:22.729Z,18.89
2018-04-28T15:25:53.316Z,18.30
2018-04-28T15:28:24.141Z,18.57
2018-04-28T15:30:54.659Z,18.52
2018-04-28T15:33:25.332Z,18.56
2018-04-28T15:35:56.311Z,18.50
2018-04-28T15:38:27.413Z,18.98
2018-04-28T15:40:58.048Z,18.71
2018-04-28T15:43:28.728Z,18.94
2018-04-28T15:45:59.413Z,19.11
2018-04-28T15:48:30.721Z,18.97
2018-04-28T15:51:01.736Z,19.17
2018-04-28T15:53:32.383Z,18.86
2018-04-28T15:56:03.100Z,18.55
2018-04-28T15:58:33.645Z,18.42
2018-04-28T16:01:04.479Z,18.57
2018-04-28T16:03:35.173Z,19.12
2018-04-28T16:06:05.907Z,19.38
2018-04-28T16:08:36.640Z,20.03
2018-04-28T16:11:07.153Z,19.83
2018-04-28T16:13:37.874Z,20.15
2018-04-28T16:16:08.543Z,19.89
2018-04-28T16:18:39.504Z,19.65
2018-04-28T16:21:10.115Z,19.16
2018-04-28T16:23:40.713Z,19.52
2018-04-28T16:26:11.296Z,20.04
2018-04-28T16:28:42.076Z,19.88
2018-04-28T16:31:12.661Z,19.46
2018-04-28T16:33:43.201Z,19.53
2018-04-28T16:36:13.868Z,19.77
2018-04-28T16:38:44.503Z,19.81
2018-04-28T16:41:15.123Z,19.61
2018-04-28T16:43:45.978Z,19.12
2018-04-28T16:46:16.677Z,18.96
2018-04-28T16:48:47.751Z,18.92
2018-04-28T16:51:18.516Z,19.31
2018-04-28T16:53:49.269Z,19.04
2018-04-28T16:56:19.812Z,18.91
2018-04-28T16:58:50.635Z,18.86
2018-04-28T17:01:21.250Z,18.79
2018-04-28T17:03:51.911Z,18.95
2018-04-28T17:06:22.618Z,18.92
2018-04-28T17:08:53.276Z,18.64
2018-04-28T17:11:24.198Z,18.86
2018-04-28T17:13:54.828Z,18.40
2018-04-28T17:16:25.531Z,18.41
2018-04-28T17:18:56.217Z,18.63
2018-04-28T17:21:26.927Z,18.50
2018-04-28T17:23:57.861Z,18.70
2018-04-28T17:26:28.700Z,18.59
2018-04-28T17:28:59.542Z,18.52
2018-04-28T17:31:30.157Z,18.38
2018-04-28T17:34:00.853Z,18.68
2018-04-28T17:36:31.695Z,18.50
2018-04-28T17:39:02.696Z,18.51
2018-04-28T17:41:33.861Z,18.53
2018-04-28T17:44:04.619Z,18.40
2018-04-28T17:46:35.402Z,18.31
2018-04-28T17:49:06.113Z,18.36
2018-04-28T17:51:36.799Z,18.73
2018-04-28T17:54:07.527Z,18.82
2018-04-28T17:56:38.348Z,18.76
2018-04-28T17:59:09.124Z,18.25
2018-04-28T18:01:39.892Z,18.07
2018-04-28T18:04:10.539Z,17.83
2018-04-28T18:06:42.134Z,18.16
2018-04-28T18:09:12.784Z,17.99
2018-04-28T18:11:43.484Z,17.85
2018-04-28T18:14:14.161Z,17.89
2018-04-28T18:16:44.747Z,17.98
2018-04-28T18:19:15.535Z,17.96
2018-04-28T18:21:46.201Z,17.91
2018-04-28T18:24:16.849Z,17.84
2018-04-28T18:26:47.489Z,17.75
2018-04-28T18:29:18.107Z,17.73
2018-04-28T18:31:48.909Z,17.61
2018-04-28T18:34:19.600Z,17.45
2018-04-28T18:36:50.347Z,17.34
2018-04-28T18:39:21.130Z,17.23
2018-04-28T18:41:51.943Z,17.21
2018-04-28T18:44:22.576Z,17.22
2018-04-28T18:46:53.388Z,17.13
2018-04-28T18:49:24.338Z,16.50
2018-04-28T18:51:54.920Z,16.29
2018-04-28T18:54:26.025Z,16.08
2018-04-28T18:56:56.752Z,16.05
2018-04-28T18:59:27.494Z,16.14
2018-04-28T19:01:58.288Z,16.59
2018-04-28T19:04:29.144Z,16.72
2018-04-28T19:07:01.185Z,16.64
2018-04-28T19:09:32.227Z,16.34
2018-04-28T19:12:02.964Z,15.93
2018-04-28T19:14:33.842Z,15.88
2018-04-28T19:17:04.508Z,15.86
2018-04-28T19:19:35.366Z,16.22
2018-04-28T19:22:06.126Z,16.37
2018-04-28T19:24:36.764Z,16.21
2018-04-28T19:27:07.379Z,16.04
2018-04-28T19:29:37.995Z,15.32
2018-04-28T19:32:08.620Z,15.32
2018-04-28T19:34:39.778Z,15.35
2018-04-28T19:37:10.525Z,15.78
2018-04-28T19:39:41.207Z,15.81
2018-04-28T19:42:12.140Z,15.78
2018-04-28T19:44:42.851Z,15.89
2018-04-28T19:47:13.588Z,15.90
2018-04-28T19:49:44.176Z,15.71
2018-04-28T19:52:15.126Z,14.91
2018-04-28T19:54:46.459Z,15.04
2018-04-28T19:57:17.082Z,15.31
2018-04-28T19:59:53.938Z,15.16
2018-04-28T20:02:30.598Z,15.16
2018-04-28T20:05:01.776Z,15.25
2018-04-28T20:07:33.024Z,15.41
2018-04-28T20:10:04.638Z,15.04
2018-04-28T20:12:35.496Z,14.81
2018-04-28T20:15:06.743Z,14.69
2018-04-28T20:17:37.887Z,14.60
2018-04-28T20:20:09.190Z,14.88
2018-04-28T20:24:58.152Z,14.51
2018-04-28T20:27:29.410Z,14.34
2018-04-28T20:30:00.547Z,14.42
2018-04-28T20:32:32.781Z,13.90
2018-04-28T20:35:04.428Z,14.40
2018-04-28T20:37:36.406Z,14.61
2018-04-28T20:40:07.485Z,14.73
2018-04-28T20:42:38.584Z,14.72
2018-04-28T20:45:09.785Z,14.65
2018-04-28T20:47:40.892Z,14.57
2018-04-28T20:50:12.007Z,14.22
2018-04-28T20:52:42.968Z,13.85
2018-04-28T20:55:14.176Z,14.11
2018-04-28T20:57:45.185Z,13.71
2018-04-28T21:00:16.405Z,14.26
2018-04-28T21:02:47.452Z,14.53
2018-04-28T21:05:18.697Z,14.41
2018-04-28T21:07:49.889Z,14.30
2018-04-28T21:10:22.373Z,14.33
2018-04-28T21:12:55.898Z,14.35
2018-04-28T21:15:27.828Z,14.41
2018-04-28T21:17:59.298Z,14.31
2018-04-28T21:20:32.758Z,13.96
2018-04-28T21:23:04.226Z,13.51
2018-04-28T21:25:35.470Z,13.58
2018-04-28T21:28:06.562Z,13.45
2018-04-28T21:30:37.995Z,13.92
2018-04-28T21:33:08.817Z,13.97
2018-04-28T21:35:39.882Z,14.01
2018-04-28T21:38:10.835Z,13.99
2018-04-28T21:40:41.898Z,13.63
2018-04-28T21:43:12.755Z,13.38
2018-04-28T21:45:44.029Z,13.05
2018-04-28T21:48:15.318Z,12.93
2018-04-28T21:50:46.329Z,12.70
2018-04-28T21:53:18.599Z,12.62
2018-04-28T21:55:49.758Z,12.94
2018-04-28T21:58:20.772Z,12.73
2018-04-28T22:00:52.761Z,12.96
2018-04-28T22:03:24.144Z,12.92
2018-04-28T22:05:55.491Z,12.96
2018-04-28T22:08:29.122Z,13.32
2018-04-28T22:11:00.844Z,13.68
2018-04-28T22:13:32.015Z,13.67
2018-04-28T22:16:03.665Z,13.31
2018-04-28T22:18:35.969Z,13.06
2018-04-28T22:21:08.075Z,12.67
2018-04-28T22:23:40.021Z,13.08
2018-04-28T22:26:13.583Z,12.85
2018-04-28T22:28:45.066Z,13.23
2018-04-28T22:31:15.905Z,13.37
2018-04-28T22:33:47.339Z,13.31
2018-04-28T22:36:18.354Z,13.44
2018-04-28T22:38:49.410Z,13.53
2018-04-28T22:41:20.372Z,12.42
2018-04-28T22:43:51.340Z,12.59
2018-04-28T22:46:22.706Z,12.39
2018-04-28T22:48:53.973Z,13.11
2018-04-28T22:51:24.876Z,13.08
2018-04-28T22:53:55.937Z,12.92
2018-04-28T22:56:26.944Z,13.16
2018-04-28T22:58:58.164Z,13.13
2018-04-28T23:01:29.740Z,13.10
2018-04-28T23:04:00.693Z,12.99
2018-04-28T23:06:32.546Z,13.02
2018-04-28T23:09:03.754Z,12.57
2018-04-28T23:11:34.745Z,12.05
2018-04-28T23:14:05.724Z,11.80
2018-04-28T23:16:36.662Z,12.34
2018-04-28T23:19:07.774Z,12.32
2018-04-28T23:21:38.799Z,12.56
2018-04-28T23:24:09.933Z,12.74
2018-04-28T23:26:41.045Z,12.87
2018-04-28T23:29:12.036Z,12.88
2018-04-28T23:31:43.128Z,13.08
2018-04-28T23:34:14.307Z,13.01
2018-04-28T23:36:45.333Z,12.96
2018-04-28T23:39:16.556Z,13.07
2018-04-28T23:41:47.791Z,12.95
2018-04-28T23:44:18.832Z,12.99
2018-04-28T23:46:49.905Z,13.01
2018-04-28T23:49:21.252Z,12.87
2018-04-28T23:51:52.453Z,12.72
2018-04-28T23:54:23.405Z,12.01
2018-04-28T23:56:54.579Z,11.51
2018-04-28T23:59:25.557Z,11.82
